sensor_id;sensor_type;location;lat;lon;timestamp;P1;durP1;ratioP1;P2;durP2;ratioP2
51020;SDS011;38907;45.562;8.856;2023-02-28T00:00:45;11.18;;;6.63;;
51020;SDS011;38907;45.562;8.856;2023-02-28T00:05:48;7.60;;;5.38;;
51020;SDS011;38907;45.562;8.856;2023-02-28T00:10:50;6.47;;;5.40;;
51020;SDS011;38907;45.562;8.856;2023-02-28T00:15:59;8.35;;;5.68;;
51020;SDS011;38907;45.562;8.856;2023-02-28T00:21:03;7.18;;;5.65;;
51020;SDS011;38907;45.562;8.856;2023-02-28T00:26:06;9.85;;;7.15;;
51020;SDS011;38907;45.562;8.856;2023-02-28T00:31:08;7.65;;;6.07;;
51020;SDS011;38907;45.562;8.856;2023-02-28T00:36:11;7.32;;;5.63;;
51020;SDS011;38907;45.562;8.856;2023-02-28T00:41:13;8.90;;;6.05;;
51020;SDS011;38907;45.562;8.856;2023-02-28T00:46:15;8.43;;;5.95;;
51020;SDS011;38907;45.562;8.856;2023-02-28T00:51:18;9.90;;;6.00;;
51020;SDS011;38907;45.562;8.856;2023-02-28T00:56:20;8.93;;;6.95;;
51020;SDS011;38907;45.562;8.856;2023-02-28T01:01:22;9.18;;;6.57;;
51020;SDS011;38907;45.562;8.856;2023-02-28T01:06:25;9.20;;;6.20;;
51020;SDS011;38907;45.562;8.856;2023-02-28T01:11:27;7.78;;;6.28;;
51020;SDS011;38907;45.562;8.856;2023-02-28T01:16:29;8.45;;;5.80;;
51020;SDS011;38907;45.562;8.856;2023-02-28T01:21:33;8.18;;;6.25;;
51020;SDS011;38907;45.562;8.856;2023-02-28T01:26:35;11.13;;;6.57;;
51020;SDS011;38907;45.562;8.856;2023-02-28T01:31:37;9.40;;;6.57;;
51020;SDS011;38907;45.562;8.856;2023-02-28T01:36:41;8.18;;;6.15;;
51020;SDS011;38907;45.562;8.856;2023-02-28T01:41:43;8.52;;;6.07;;
51020;SDS011;38907;45.562;8.856;2023-02-28T01:46:45;9.10;;;6.00;;
51020;SDS011;38907;45.562;8.856;2023-02-28T01:51:48;13.60;;;6.30;;
51020;SDS011;38907;45.562;8.856;2023-02-28T01:56:53;9.05;;;6.10;;
51020;SDS011;38907;45.562;8.856;2023-02-28T02:01:58;9.65;;;6.60;;
51020;SDS011;38907;45.562;8.856;2023-02-28T02:07:01;12.60;;;6.80;;
51020;SDS011;38907;45.562;8.856;2023-02-28T02:12:07;10.73;;;6.85;;
51020;SDS011;38907;45.562;8.856;2023-02-28T02:17:19;9.57;;;6.20;;
51020;SDS011;38907;45.562;8.856;2023-02-28T02:34:19;17.45;;;8.00;;
51020;SDS011;38907;45.562;8.856;2023-02-28T02:39:39;14.37;;;7.70;;
51020;SDS011;38907;45.562;8.856;2023-02-28T02:44:50;10.57;;;7.15;;
51020;SDS011;38907;45.562;8.856;2023-02-28T02:49:59;11.70;;;8.07;;
51020;SDS011;38907;45.562;8.856;2023-02-28T02:55:05;10.65;;;7.10;;
51020;SDS011;38907;45.562;8.856;2023-02-28T03:00:12;10.68;;;7.25;;
51020;SDS011;38907;45.562;8.856;2023-02-28T03:05:19;11.02;;;7.38;;
51020;SDS011;38907;45.562;8.856;2023-02-28T03:10:28;10.57;;;7.00;;
51020;SDS011;38907;45.562;8.856;2023-02-28T03:15:33;11.32;;;6.97;;
51020;SDS011;38907;45.562;8.856;2023-02-28T03:20:47;11.30;;;8.00;;
51020;SDS011;38907;45.562;8.856;2023-02-28T03:25:59;14.50;;;9.25;;
51020;SDS011;38907;45.562;8.856;2023-02-28T03:31:07;16.75;;;9.80;;
51020;SDS011;38907;45.562;8.856;2023-02-28T03:36:19;14.90;;;9.98;;
51020;SDS011;38907;45.562;8.856;2023-02-28T03:41:25;18.35;;;10.00;;
51020;SDS011;38907;45.562;8.856;2023-02-28T03:46:33;12.60;;;8.70;;
51020;SDS011;38907;45.562;8.856;2023-02-28T03:51:41;14.75;;;8.32;;
51020;SDS011;38907;45.562;8.856;2023-02-28T03:56:45;13.95;;;8.43;;
51020;SDS011;38907;45.562;8.856;2023-02-28T04:01:53;12.02;;;8.18;;
51020;SDS011;38907;45.562;8.856;2023-02-28T04:07:03;12.40;;;7.80;;
51020;SDS011;38907;45.562;8.856;2023-02-28T04:12:06;16.20;;;8.02;;
51020;SDS011;38907;45.562;8.856;2023-02-28T04:17:08;14.27;;;8.40;;
51020;SDS011;38907;45.562;8.856;2023-02-28T04:22:11;12.07;;;8.20;;
51020;SDS011;38907;45.562;8.856;2023-02-28T04:27:13;12.45;;;8.00;;
51020;SDS011;38907;45.562;8.856;2023-02-28T04:32:15;15.95;;;9.18;;
51020;SDS011;38907;45.562;8.856;2023-02-28T04:37:19;17.48;;;8.80;;
51020;SDS011;38907;45.562;8.856;2023-02-28T04:42:21;16.05;;;9.00;;
51020;SDS011;38907;45.562;8.856;2023-02-28T04:47:22;14.32;;;8.07;;
51020;SDS011;38907;45.562;8.856;2023-02-28T04:52:26;11.40;;;7.18;;
51020;SDS011;38907;45.562;8.856;2023-02-28T04:57:28;11.98;;;7.82;;
51020;SDS011;38907;45.562;8.856;2023-02-28T05:02:30;16.13;;;8.52;;
51020;SDS011;38907;45.562;8.856;2023-02-28T05:07:36;14.48;;;8.27;;
51020;SDS011;38907;45.562;8.856;2023-02-28T05:12:38;13.70;;;8.43;;
51020;SDS011;38907;45.562;8.856;2023-02-28T05:17:40;22.70;;;8.65;;
51020;SDS011;38907;45.562;8.856;2023-02-28T05:22:43;17.30;;;8.80;;
51020;SDS011;38907;45.562;8.856;2023-02-28T05:27:45;21.40;;;8.57;;
51020;SDS011;38907;45.562;8.856;2023-02-28T05:32:49;19.95;;;9.68;;
51020;SDS011;38907;45.562;8.856;2023-02-28T05:37:53;15.35;;;8.55;;
51020;SDS011;38907;45.562;8.856;2023-02-28T05:42:55;14.13;;;9.20;;
51020;SDS011;38907;45.562;8.856;2023-02-28T05:47:57;13.43;;;8.98;;
51020;SDS011;38907;45.562;8.856;2023-02-28T05:53:00;20.88;;;10.13;;
51020;SDS011;38907;45.562;8.856;2023-02-28T05:58:02;15.57;;;9.45;;
51020;SDS011;38907;45.562;8.856;2023-02-28T06:03:04;14.57;;;9.23;;
51020;SDS011;38907;45.562;8.856;2023-02-28T06:08:07;16.73;;;9.77;;
51020;SDS011;38907;45.562;8.856;2023-02-28T06:13:09;18.45;;;9.88;;
51020;SDS011;38907;45.562;8.856;2023-02-28T06:18:11;22.30;;;9.75;;
51020;SDS011;38907;45.562;8.856;2023-02-28T06:23:14;17.17;;;11.48;;
51020;SDS011;38907;45.562;8.856;2023-02-28T06:28:16;28.15;;;12.98;;
51020;SDS011;38907;45.562;8.856;2023-02-28T06:33:18;21.55;;;10.48;;
51020;SDS011;38907;45.562;8.856;2023-02-28T06:38:21;21.20;;;10.63;;
51020;SDS011;38907;45.562;8.856;2023-02-28T06:43:24;20.05;;;11.73;;
51020;SDS011;38907;45.562;8.856;2023-02-28T06:48:30;22.95;;;9.75;;
51020;SDS011;38907;45.562;8.856;2023-02-28T06:53:33;16.95;;;9.55;;
51020;SDS011;38907;45.562;8.856;2023-02-28T07:03:37;20.10;;;11.23;;
51020;SDS011;38907;45.562;8.856;2023-02-28T07:08:40;20.00;;;12.00;;
51020;SDS011;38907;45.562;8.856;2023-02-28T07:13:42;20.35;;;12.55;;
51020;SDS011;38907;45.562;8.856;2023-02-28T07:18:44;22.75;;;12.27;;
51020;SDS011;38907;45.562;8.856;2023-02-28T07:23:47;17.88;;;10.88;;
51020;SDS011;38907;45.562;8.856;2023-02-28T07:28:49;19.27;;;10.70;;
51020;SDS011;38907;45.562;8.856;2023-02-28T07:33:51;16.25;;;11.05;;
51020;SDS011;38907;45.562;8.856;2023-02-28T07:38:55;20.35;;;11.00;;
51020;SDS011;38907;45.562;8.856;2023-02-28T07:43:57;18.70;;;10.88;;
51020;SDS011;38907;45.562;8.856;2023-02-28T07:48:59;20.85;;;11.48;;
51020;SDS011;38907;45.562;8.856;2023-02-28T07:54:04;21.48;;;12.10;;
51020;SDS011;38907;45.562;8.856;2023-02-28T07:59:06;21.88;;;11.32;;
51020;SDS011;38907;45.562;8.856;2023-02-28T08:04:09;25.20;;;11.20;;
51020;SDS011;38907;45.562;8.856;2023-02-28T08:09:12;22.48;;;11.30;;
51020;SDS011;38907;45.562;8.856;2023-02-28T08:14:14;24.23;;;12.63;;
51020;SDS011;38907;45.562;8.856;2023-02-28T08:19:16;20.08;;;12.40;;
51020;SDS011;38907;45.562;8.856;2023-02-28T08:24:20;18.10;;;12.00;;
51020;SDS011;38907;45.562;8.856;2023-02-28T08:29:22;21.98;;;11.93;;
51020;SDS011;38907;45.562;8.856;2023-02-28T08:34:24;21.55;;;13.38;;
51020;SDS011;38907;45.562;8.856;2023-02-28T08:39:27;22.27;;;12.77;;
51020;SDS011;38907;45.562;8.856;2023-02-28T08:44:29;21.92;;;11.77;;
51020;SDS011;38907;45.562;8.856;2023-02-28T08:49:31;18.55;;;11.20;;
51020;SDS011;38907;45.562;8.856;2023-02-28T08:54:34;19.85;;;12.38;;
51020;SDS011;38907;45.562;8.856;2023-02-28T08:59:36;16.90;;;10.88;;
51020;SDS011;38907;45.562;8.856;2023-02-28T09:04:38;19.25;;;11.23;;
51020;SDS011;38907;45.562;8.856;2023-02-28T09:09:41;27.48;;;11.77;;
51020;SDS011;38907;45.562;8.856;2023-02-28T09:14:53;20.55;;;12.30;;
51020;SDS011;38907;45.562;8.856;2023-02-28T09:19:55;19.10;;;11.68;;
51020;SDS011;38907;45.562;8.856;2023-02-28T09:24:58;16.80;;;11.05;;
51020;SDS011;38907;45.562;8.856;2023-02-28T09:30:00;19.55;;;11.93;;
51020;SDS011;38907;45.562;8.856;2023-02-28T09:35:02;21.02;;;11.85;;
51020;SDS011;38907;45.562;8.856;2023-02-28T09:40:07;23.88;;;12.63;;
51020;SDS011;38907;45.562;8.856;2023-02-28T09:45:13;20.23;;;11.98;;
51020;SDS011;38907;45.562;8.856;2023-02-28T09:50:23;18.70;;;12.75;;
51020;SDS011;38907;45.562;8.856;2023-02-28T09:55:35;19.75;;;12.18;;
51020;SDS011;38907;45.562;8.856;2023-02-28T10:00:43;22.15;;;12.85;;
51020;SDS011;38907;45.562;8.856;2023-02-28T10:05:48;21.45;;;13.27;;
51020;SDS011;38907;45.562;8.856;2023-02-28T10:10:56;22.33;;;12.77;;
51020;SDS011;38907;45.562;8.856;2023-02-28T10:16:02;23.73;;;13.82;;
51020;SDS011;38907;45.562;8.856;2023-02-28T10:21:09;20.13;;;12.27;;
51020;SDS011;38907;45.562;8.856;2023-02-28T10:26:22;19.87;;;12.17;;
51020;SDS011;38907;45.562;8.856;2023-02-28T10:31:27;28.70;;;12.77;;
51020;SDS011;38907;45.562;8.856;2023-02-28T10:36:29;26.65;;;13.10;;
51020;SDS011;38907;45.562;8.856;2023-02-28T10:41:33;20.52;;;12.70;;
51020;SDS011;38907;45.562;8.856;2023-02-28T10:46:36;19.73;;;12.68;;
51020;SDS011;38907;45.562;8.856;2023-02-28T10:51:40;23.98;;;13.93;;
51020;SDS011;38907;45.562;8.856;2023-02-28T10:56:44;24.90;;;14.05;;
51020;SDS011;38907;45.562;8.856;2023-02-28T11:01:46;20.88;;;13.23;;
51020;SDS011;38907;45.562;8.856;2023-02-28T11:06:55;19.40;;;12.57;;
51020;SDS011;38907;45.562;8.856;2023-02-28T11:12:00;20.75;;;12.73;;
51020;SDS011;38907;45.562;8.856;2023-02-28T11:17:11;22.30;;;13.10;;
51020;SDS011;38907;45.562;8.856;2023-02-28T11:22:20;24.35;;;13.43;;
51020;SDS011;38907;45.562;8.856;2023-02-28T11:27:46;21.75;;;12.65;;
51020;SDS011;38907;45.562;8.856;2023-02-28T11:32:50;22.20;;;13.02;;
51020;SDS011;38907;45.562;8.856;2023-02-28T11:37:52;21.00;;;12.27;;
51020;SDS011;38907;45.562;8.856;2023-02-28T11:42:58;20.38;;;13.18;;
51020;SDS011;38907;45.562;8.856;2023-02-28T11:48:09;20.97;;;11.77;;
51020;SDS011;38907;45.562;8.856;2023-02-28T11:53:19;24.33;;;12.77;;
51020;SDS011;38907;45.562;8.856;2023-02-28T11:58:33;22.42;;;13.32;;
51020;SDS011;38907;45.562;8.856;2023-02-28T12:03:44;23.60;;;12.27;;
51020;SDS011;38907;45.562;8.856;2023-02-28T12:08:58;20.25;;;11.93;;
51020;SDS011;38907;45.562;8.856;2023-02-28T12:14:14;22.02;;;12.85;;
51020;SDS011;38907;45.562;8.856;2023-02-28T12:19:47;23.48;;;12.23;;
51020;SDS011;38907;45.562;8.856;2023-02-28T12:25:02;21.55;;;12.40;;
51020;SDS011;38907;45.562;8.856;2023-02-28T12:30:27;23.48;;;12.82;;
51020;SDS011;38907;45.562;8.856;2023-02-28T12:35:32;19.90;;;11.68;;
51020;SDS011;38907;45.562;8.856;2023-02-28T12:40:42;35.90;;;13.63;;
51020;SDS011;38907;45.562;8.856;2023-02-28T12:45:49;31.80;;;13.52;;
51020;SDS011;38907;45.562;8.856;2023-02-28T12:50:53;17.88;;;11.82;;
51020;SDS011;38907;45.562;8.856;2023-02-28T12:55:57;20.27;;;12.43;;
51020;SDS011;38907;45.562;8.856;2023-02-28T13:01:19;18.58;;;11.63;;
51020;SDS011;38907;45.562;8.856;2023-02-28T13:06:41;16.73;;;11.00;;
51020;SDS011;38907;45.562;8.856;2023-02-28T13:11:53;18.65;;;10.98;;
51020;SDS011;38907;45.562;8.856;2023-02-28T13:16:59;19.08;;;11.75;;
51020;SDS011;38907;45.562;8.856;2023-02-28T13:22:03;17.13;;;11.23;;
51020;SDS011;38907;45.562;8.856;2023-02-28T13:27:11;19.27;;;12.05;;
51020;SDS011;38907;45.562;8.856;2023-02-28T13:32:33;18.70;;;11.98;;
51020;SDS011;38907;45.562;8.856;2023-02-28T13:37:41;22.10;;;12.45;;
51020;SDS011;38907;45.562;8.856;2023-02-28T13:42:46;17.67;;;12.07;;
51020;SDS011;38907;45.562;8.856;2023-02-28T13:47:56;19.10;;;12.20;;
51020;SDS011;38907;45.562;8.856;2023-02-28T13:58:41;20.75;;;12.18;;
51020;SDS011;38907;45.562;8.856;2023-02-28T14:03:59;21.63;;;12.18;;
51020;SDS011;38907;45.562;8.856;2023-02-28T14:09:27;19.52;;;11.85;;
51020;SDS011;38907;45.562;8.856;2023-02-28T14:19:58;19.75;;;12.02;;
51020;SDS011;38907;45.562;8.856;2023-02-28T14:25:06;19.17;;;12.18;;
51020;SDS011;38907;45.562;8.856;2023-02-28T14:30:20;18.55;;;11.65;;
51020;SDS011;38907;45.562;8.856;2023-02-28T14:35:56;19.27;;;11.80;;
51020;SDS011;38907;45.562;8.856;2023-02-28T14:46:07;21.58;;;13.02;;
51020;SDS011;38907;45.562;8.856;2023-02-28T14:51:19;20.17;;;12.95;;
51020;SDS011;38907;45.562;8.856;2023-02-28T14:56:23;17.75;;;11.88;;
51020;SDS011;38907;45.562;8.856;2023-02-28T15:01:28;25.77;;;13.20;;
51020;SDS011;38907;45.562;8.856;2023-02-28T15:06:33;20.60;;;13.25;;
51020;SDS011;38907;45.562;8.856;2023-02-28T15:11:35;18.92;;;12.68;;
51020;SDS011;38907;45.562;8.856;2023-02-28T15:16:39;20.38;;;12.25;;
51020;SDS011;38907;45.562;8.856;2023-02-28T15:21:46;18.73;;;11.95;;
51020;SDS011;38907;45.562;8.856;2023-02-28T15:26:51;28.67;;;13.40;;
51020;SDS011;38907;45.562;8.856;2023-02-28T15:32:00;19.90;;;13.00;;
51020;SDS011;38907;45.562;8.856;2023-02-28T15:42:34;19.45;;;13.25;;
51020;SDS011;38907;45.562;8.856;2023-02-28T15:47:36;21.25;;;12.93;;
51020;SDS011;38907;45.562;8.856;2023-02-28T15:52:40;22.27;;;13.02;;
51020;SDS011;38907;45.562;8.856;2023-02-28T15:57:44;20.90;;;12.88;;
51020;SDS011;38907;45.562;8.856;2023-02-28T16:02:47;20.95;;;13.80;;
51020;SDS011;38907;45.562;8.856;2023-02-28T16:07:50;24.10;;;13.70;;
51020;SDS011;38907;45.562;8.856;2023-02-28T16:12:52;20.42;;;13.07;;
51020;SDS011;38907;45.562;8.856;2023-02-28T16:17:56;23.93;;;13.63;;
51020;SDS011;38907;45.562;8.856;2023-02-28T16:28:02;24.83;;;13.07;;
51020;SDS011;38907;45.562;8.856;2023-02-28T16:33:07;23.02;;;13.65;;
51020;SDS011;38907;45.562;8.856;2023-02-28T16:38:11;20.13;;;13.02;;
51020;SDS011;38907;45.562;8.856;2023-02-28T16:43:13;21.33;;;12.85;;
51020;SDS011;38907;45.562;8.856;2023-02-28T16:48:19;21.45;;;14.45;;
51020;SDS011;38907;45.562;8.856;2023-02-28T16:53:22;22.92;;;13.60;;
51020;SDS011;38907;45.562;8.856;2023-02-28T16:58:24;22.95;;;14.13;;
51020;SDS011;38907;45.562;8.856;2023-02-28T17:03:27;26.80;;;14.55;;
51020;SDS011;38907;45.562;8.856;2023-02-28T17:08:31;31.67;;;16.60;;
51020;SDS011;38907;45.562;8.856;2023-02-28T17:13:33;26.40;;;16.27;;
51020;SDS011;38907;45.562;8.856;2023-02-28T17:18:35;24.73;;;16.38;;
51020;SDS011;38907;45.562;8.856;2023-02-28T17:23:40;24.70;;;14.93;;
51020;SDS011;38907;45.562;8.856;2023-02-28T17:28:42;21.80;;;13.55;;
51020;SDS011;38907;45.562;8.856;2023-02-28T17:33:44;24.45;;;14.30;;
51020;SDS011;38907;45.562;8.856;2023-02-28T17:38:47;22.80;;;13.95;;
51020;SDS011;38907;45.562;8.856;2023-02-28T17:43:49;25.70;;;14.15;;
51020;SDS011;38907;45.562;8.856;2023-02-28T17:48:51;27.10;;;14.40;;
51020;SDS011;38907;45.562;8.856;2023-02-28T17:53:55;33.33;;;19.92;;
51020;SDS011;38907;45.562;8.856;2023-02-28T17:58:57;26.15;;;15.23;;
51020;SDS011;38907;45.562;8.856;2023-02-28T18:03:59;24.63;;;13.38;;
51020;SDS011;38907;45.562;8.856;2023-02-28T18:09:02;24.50;;;14.25;;
51020;SDS011;38907;45.562;8.856;2023-02-28T18:14:04;28.13;;;15.90;;
51020;SDS011;38907;45.562;8.856;2023-02-28T18:19:06;23.33;;;13.18;;
51020;SDS011;38907;45.562;8.856;2023-02-28T18:24:15;23.17;;;13.75;;
51020;SDS011;38907;45.562;8.856;2023-02-28T18:29:18;28.45;;;17.15;;
51020;SDS011;38907;45.562;8.856;2023-02-28T18:34:22;28.98;;;16.60;;
51020;SDS011;38907;45.562;8.856;2023-02-28T18:39:25;27.80;;;17.23;;
51020;SDS011;38907;45.562;8.856;2023-02-28T18:44:27;24.55;;;14.32;;
51020;SDS011;38907;45.562;8.856;2023-02-28T18:49:30;20.45;;;13.25;;
51020;SDS011;38907;45.562;8.856;2023-02-28T18:54:34;22.55;;;13.65;;
51020;SDS011;38907;45.562;8.856;2023-02-28T18:59:36;22.33;;;13.15;;
51020;SDS011;38907;45.562;8.856;2023-02-28T19:04:39;30.90;;;15.43;;
51020;SDS011;38907;45.562;8.856;2023-02-28T19:09:43;31.10;;;13.27;;
51020;SDS011;38907;45.562;8.856;2023-02-28T19:14:44;29.15;;;14.35;;
51020;SDS011;38907;45.562;8.856;2023-02-28T19:19:46;31.27;;;15.13;;
51020;SDS011;38907;45.562;8.856;2023-02-28T19:24:50;21.42;;;13.75;;
51020;SDS011;38907;45.562;8.856;2023-02-28T19:29:52;24.73;;;14.43;;
51020;SDS011;38907;45.562;8.856;2023-02-28T19:34:54;27.70;;;16.02;;
51020;SDS011;38907;45.562;8.856;2023-02-28T19:39:57;25.23;;;16.08;;
51020;SDS011;38907;45.562;8.856;2023-02-28T19:44:59;32.58;;;17.60;;
51020;SDS011;38907;45.562;8.856;2023-02-28T19:50:01;31.38;;;15.68;;
51020;SDS011;38907;45.562;8.856;2023-02-28T19:55:07;28.02;;;16.35;;
51020;SDS011;38907;45.562;8.856;2023-02-28T20:00:10;25.45;;;14.55;;
51020;SDS011;38907;45.562;8.856;2023-02-28T20:05:14;27.83;;;15.80;;
51020;SDS011;38907;45.562;8.856;2023-02-28T20:10:18;26.27;;;15.68;;
51020;SDS011;38907;45.562;8.856;2023-02-28T20:15:20;36.90;;;20.42;;
51020;SDS011;38907;45.562;8.856;2023-02-28T20:20:21;36.75;;;20.55;;
51020;SDS011;38907;45.562;8.856;2023-02-28T20:25:25;35.72;;;18.30;;
51020;SDS011;38907;45.562;8.856;2023-02-28T20:30:27;33.75;;;17.67;;
51020;SDS011;38907;45.562;8.856;2023-02-28T20:35:28;34.15;;;18.75;;
51020;SDS011;38907;45.562;8.856;2023-02-28T20:40:32;32.83;;;17.90;;
51020;SDS011;38907;45.562;8.856;2023-02-28T20:45:34;31.02;;;18.92;;
51020;SDS011;38907;45.562;8.856;2023-02-28T20:50:36;31.85;;;17.10;;
51020;SDS011;38907;45.562;8.856;2023-02-28T20:55:39;32.28;;;17.02;;
51020;SDS011;38907;45.562;8.856;2023-02-28T21:00:41;30.75;;;17.45;;
51020;SDS011;38907;45.562;8.856;2023-02-28T21:05:42;39.13;;;21.92;;
51020;SDS011;38907;45.562;8.856;2023-02-28T21:10:46;42.72;;;25.13;;
51020;SDS011;38907;45.562;8.856;2023-02-28T21:15:48;41.50;;;24.85;;
51020;SDS011;38907;45.562;8.856;2023-02-28T21:20:50;38.55;;;21.55;;
51020;SDS011;38907;45.562;8.856;2023-02-28T21:25:53;52.53;;;29.17;;
51020;SDS011;38907;45.562;8.856;2023-02-28T21:30:59;49.45;;;29.23;;
51020;SDS011;38907;45.562;8.856;2023-02-28T21:36:02;50.63;;;29.25;;
51020;SDS011;38907;45.562;8.856;2023-02-28T21:41:07;46.22;;;26.33;;
51020;SDS011;38907;45.562;8.856;2023-02-28T21:46:11;41.83;;;24.48;;
51020;SDS011;38907;45.562;8.856;2023-02-28T21:51:16;39.75;;;24.40;;
51020;SDS011;38907;45.562;8.856;2023-02-28T22:01:22;43.67;;;24.08;;
51020;SDS011;38907;45.562;8.856;2023-02-28T22:06:25;41.20;;;22.20;;
51020;SDS011;38907;45.562;8.856;2023-02-28T22:11:30;47.15;;;24.33;;
51020;SDS011;38907;45.562;8.856;2023-02-28T22:16:33;47.05;;;25.90;;
51020;SDS011;38907;45.562;8.856;2023-02-28T22:21:35;47.63;;;26.77;;
51020;SDS011;38907;45.562;8.856;2023-02-28T22:26:39;48.83;;;27.40;;
51020;SDS011;38907;45.562;8.856;2023-02-28T22:31:41;47.00;;;26.73;;
51020;SDS011;38907;45.562;8.856;2023-02-28T22:36:43;47.83;;;25.52;;
51020;SDS011;38907;45.562;8.856;2023-02-28T22:41:46;47.08;;;23.70;;
51020;SDS011;38907;45.562;8.856;2023-02-28T22:46:51;50.08;;;24.10;;
51020;SDS011;38907;45.562;8.856;2023-02-28T22:51:53;40.45;;;22.45;;
51020;SDS011;38907;45.562;8.856;2023-02-28T22:56:56;38.85;;;21.65;;
51020;SDS011;38907;45.562;8.856;2023-02-28T23:01:58;42.78;;;22.52;;
51020;SDS011;38907;45.562;8.856;2023-02-28T23:07:00;38.65;;;22.88;;
51020;SDS011;38907;45.562;8.856;2023-02-28T23:12:04;44.97;;;24.80;;
51020;SDS011;38907;45.562;8.856;2023-02-28T23:22:07;44.60;;;24.40;;
51020;SDS011;38907;45.562;8.856;2023-02-28T23:27:11;41.85;;;22.92;;
51020;SDS011;38907;45.562;8.856;2023-02-28T23:32:12;42.20;;;21.70;;
51020;SDS011;38907;45.562;8.856;2023-02-28T23:37:14;38.28;;;22.50;;
51020;SDS011;38907;45.562;8.856;2023-02-28T23:42:17;41.53;;;23.15;;
51020;SDS011;38907;45.562;8.856;2023-02-28T23:47:19;42.10;;;21.85;;
51020;SDS011;38907;45.562;8.856;2023-02-28T23:52:22;44.70;;;24.43;;
51020;SDS011;38907;45.562;8.856;2023-02-28T23:57:26;39.72;;;22.05;;
